Andalusia, Pennsylvania
Current Conditions -  °F | °C
As of 7:54 AM on Tuesday 21 Oct 2014 (Local Time) from KPNE Reporting Station
Broken Clouds Broken Clouds  
Wind Chill: 51°   Ceiling: 12000
Heat Index: 51°   Visibility: 10mi
Dew Point: 45°   Wind: 3mph
Humidity: 80%   Direction: 60°ENE
Pressure: 29.9"   Gusts: NA
Location:  40.1068°N, 74.9379°W
Report Text: KPNE 211154Z 06003KT 10SM SCT065 BKN120 11/07 A2990 RMK AO2 SLP124 T01060072 10128 20100 55002
Loading
Personal Weather Stations






























Interactive Weather Map
Tropical Storm Tracking
New forecast layout! Learn more

10-Day Weather Forecast

Advertisements
Track Severe Weather on mobile